createdAt,value
2019-01-05T00:00:54.334Z,6.0
2019-01-05T00:01:55.695Z,5.9
2019-01-05T00:02:57.057Z,5.9
2019-01-05T00:03:58.422Z,5.9
2019-01-05T00:04:59.782Z,5.9
2019-01-05T00:06:01.148Z,5.9
2019-01-05T00:07:02.513Z,6.0
2019-01-05T00:08:03.873Z,6.0
2019-01-05T00:09:05.237Z,6.0
2019-01-05T00:10:06.600Z,5.9
2019-01-05T00:11:07.964Z,5.9
2019-01-05T00:12:09.335Z,5.9
2019-01-05T00:13:10.694Z,5.9
2019-01-05T00:14:12.058Z,6.0
2019-01-05T00:15:13.421Z,5.9
2019-01-05T00:16:14.784Z,6.0
2019-01-05T00:17:16.152Z,6.0
2019-01-05T00:18:17.515Z,5.9
2019-01-05T00:19:18.997Z,6.0
2019-01-05T00:20:20.366Z,6.0
2019-01-05T00:21:21.734Z,6.0
2019-01-05T00:22:23.101Z,6.0
2019-01-05T00:23:24.465Z,6.0
2019-01-05T00:24:25.824Z,6.0
2019-01-05T00:25:27.188Z,5.9
2019-01-05T00:26:28.556Z,5.9
2019-01-05T00:27:29.956Z,5.9
2019-01-05T00:28:31.317Z,5.9
2019-01-05T00:29:32.682Z,5.9
2019-01-05T00:30:34.055Z,5.9
2019-01-05T00:31:35.426Z,5.9
2019-01-05T00:32:36.789Z,5.8
2019-01-05T00:33:38.152Z,5.9
2019-01-05T00:34:39.512Z,5.9
2019-01-05T00:35:40.878Z,5.9
2019-01-05T00:36:42.244Z,5.8
2019-01-05T00:37:43.607Z,5.9
2019-01-05T00:38:44.971Z,5.8
2019-01-05T00:39:46.334Z,5.9
2019-01-05T00:40:47.696Z,6.0
2019-01-05T00:41:49.056Z,5.9
2019-01-05T00:42:50.420Z,5.9
2019-01-05T00:43:51.782Z,5.9
2019-01-05T00:44:53.141Z,6.0
2019-01-05T00:45:54.506Z,6.0
2019-01-05T00:46:55.870Z,6.0
2019-01-05T00:47:57.238Z,6.0
2019-01-05T00:48:58.598Z,6.0
2019-01-05T00:49:59.961Z,6.0
2019-01-05T00:51:01.323Z,6.0
2019-01-05T00:52:02.692Z,5.9
2019-01-05T00:53:04.051Z,6.0
2019-01-05T00:54:05.424Z,6.0
2019-01-05T00:55:06.786Z,6.0
2019-01-05T00:56:08.148Z,6.0
2019-01-05T00:57:09.513Z,6.0
2019-01-05T00:58:10.874Z,6.0
2019-01-05T00:59:12.238Z,6.0
2019-01-05T01:00:13.602Z,6.0
2019-01-05T01:01:14.964Z,6.0
2019-01-05T01:02:16.329Z,6.0
2019-01-05T01:03:17.691Z,6.0
2019-01-05T01:04:19.094Z,6.0
2019-01-05T01:05:20.416Z,6.0
2019-01-05T01:06:21.780Z,6.0
2019-01-05T01:07:23.147Z,6.0
2019-01-05T01:08:24.512Z,6.1
2019-01-05T01:09:25.874Z,6.0
2019-01-05T01:10:27.237Z,6.0
2019-01-05T01:11:28.595Z,6.0
2019-01-05T01:12:29.961Z,6.0
2019-01-05T01:13:31.322Z,6.1
2019-01-05T01:14:32.690Z,6.1
2019-01-05T01:15:34.055Z,6.1
2019-01-05T01:16:35.425Z,6.0
2019-01-05T01:17:36.783Z,6.1
2019-01-05T01:18:38.147Z,6.1
2019-01-05T01:19:39.510Z,6.1
2019-01-05T01:20:40.878Z,6.0
2019-01-05T01:21:42.237Z,6.1
2019-01-05T01:22:43.607Z,6.1
2019-01-05T01:23:44.968Z,6.0
2019-01-05T01:24:46.332Z,6.1
2019-01-05T01:25:47.688Z,6.1
2019-01-05T01:26:49.053Z,6.1
2019-01-05T01:27:50.415Z,6.0
2019-01-05T01:28:51.791Z,6.1
2019-01-05T01:29:53.152Z,6.1
2019-01-05T01:30:54.518Z,6.1
2019-01-05T01:31:55.881Z,6.2
2019-01-05T01:32:57.254Z,6.2
2019-01-05T01:33:58.614Z,6.2
2019-01-05T01:34:59.980Z,6.2
2019-01-05T01:36:01.334Z,6.1
2019-01-05T01:37:02.701Z,6.2
2019-01-05T01:38:04.062Z,6.2
2019-01-05T01:39:05.426Z,6.2
2019-01-05T01:40:06.794Z,6.2
2019-01-05T01:41:08.149Z,6.2
2019-01-05T01:42:09.517Z,6.2
2019-01-05T01:43:10.877Z,6.3
2019-01-05T01:44:12.242Z,6.3
2019-01-05T01:45:13.611Z,6.4
2019-01-05T01:46:14.981Z,6.3
2019-01-05T01:47:16.340Z,6.3
2019-01-05T01:48:17.704Z,6.3
2019-01-05T01:49:19.107Z,6.3
2019-01-05T01:50:20.472Z,6.3
2019-01-05T01:51:21.844Z,6.3
2019-01-05T01:52:23.205Z,6.3
2019-01-05T01:53:24.567Z,6.2
2019-01-05T01:54:25.934Z,6.3
2019-01-05T01:55:27.298Z,6.2
2019-01-05T01:56:28.659Z,6.2
2019-01-05T01:57:30.049Z,6.3
2019-01-05T01:58:31.415Z,6.3
2019-01-05T01:59:32.779Z,6.3
2019-01-05T02:00:34.139Z,6.3
2019-01-05T02:01:35.508Z,6.3
2019-01-05T02:02:36.881Z,6.4
2019-01-05T02:03:38.242Z,6.2
2019-01-05T02:04:39.616Z,6.3
2019-01-05T02:05:40.993Z,6.3
2019-01-05T02:06:42.363Z,6.4
2019-01-05T02:07:43.721Z,6.3
2019-01-05T02:08:45.090Z,6.3
2019-01-05T02:09:46.455Z,6.3
2019-01-05T02:10:47.812Z,6.3
2019-01-05T02:11:49.173Z,6.3
2019-01-05T02:12:50.547Z,6.3
2019-01-05T02:13:51.906Z,6.2
2019-01-05T02:14:53.267Z,6.3
2019-01-05T02:15:54.628Z,6.3
2019-01-05T02:16:55.997Z,6.3
2019-01-05T02:17:57.357Z,6.3
2019-01-05T02:18:58.726Z,6.3
2019-01-05T02:20:00.172Z,6.3
2019-01-05T02:21:01.476Z,6.3
2019-01-05T02:22:02.846Z,6.2
2019-01-05T02:23:04.209Z,6.3
2019-01-05T02:24:05.588Z,6.3
2019-01-05T02:25:06.951Z,6.3
2019-01-05T02:26:08.314Z,6.2
2019-01-05T02:27:09.679Z,6.3
2019-01-05T02:28:11.045Z,6.2
2019-01-05T02:29:12.412Z,6.3
2019-01-05T02:30:13.774Z,6.3
2019-01-05T02:31:15.138Z,6.2
2019-01-05T02:32:16.497Z,6.3
2019-01-05T02:33:17.862Z,6.3
2019-01-05T02:34:19.224Z,6.3
2019-01-05T02:35:20.592Z,6.3
2019-01-05T02:36:21.950Z,6.4
2019-01-05T02:37:23.313Z,6.3
2019-01-05T02:38:24.674Z,6.3
2019-01-05T02:39:26.051Z,6.3
2019-01-05T02:40:27.413Z,6.3
2019-01-05T02:41:28.776Z,6.4
2019-01-05T02:42:30.149Z,6.4
2019-01-05T02:43:31.512Z,6.4
2019-01-05T02:44:32.873Z,6.4
2019-01-05T02:45:34.241Z,6.4
2019-01-05T02:46:35.600Z,6.3
2019-01-05T02:47:36.959Z,6.3
2019-01-05T02:48:38.329Z,6.3
2019-01-05T02:49:39.693Z,6.4
2019-01-05T02:50:41.057Z,6.4
2019-01-05T02:51:42.423Z,6.4
2019-01-05T02:52:43.787Z,6.3
2019-01-05T02:53:45.148Z,6.5
2019-01-05T02:54:46.513Z,6.5
2019-01-05T02:55:47.877Z,6.5
2019-01-05T02:56:49.257Z,6.5
2019-01-05T02:57:50.614Z,6.5
2019-01-05T02:58:51.984Z,6.4
2019-01-05T02:59:53.339Z,6.4
2019-01-05T03:00:54.704Z,6.4
2019-01-05T03:01:56.063Z,6.5
2019-01-05T03:02:57.443Z,6.4
2019-01-05T03:03:58.796Z,6.4
2019-01-05T03:05:00.322Z,6.4
2019-01-05T03:06:01.484Z,6.4
2019-01-05T03:07:02.846Z,6.4
2019-01-05T03:08:04.210Z,6.4
2019-01-05T03:09:05.578Z,6.5
2019-01-05T03:10:06.943Z,6.4
2019-01-05T03:11:08.309Z,6.4
2019-01-05T03:12:09.666Z,6.4
2019-01-05T03:13:11.029Z,6.5
2019-01-05T03:14:12.406Z,6.5
2019-01-05T03:15:13.769Z,6.5
2019-01-05T03:16:15.136Z,6.5
2019-01-05T03:17:16.504Z,6.5
2019-01-05T03:18:17.869Z,6.5
2019-01-05T03:19:19.230Z,6.5
2019-01-05T03:20:20.599Z,6.6
2019-01-05T03:21:21.964Z,6.6
2019-01-05T03:22:23.351Z,6.6
2019-01-05T03:23:24.713Z,6.5
2019-01-05T03:24:26.083Z,6.5
2019-01-05T03:25:27.445Z,6.6
2019-01-05T03:26:28.813Z,6.6
2019-01-05T03:27:30.168Z,6.5
2019-01-05T03:28:31.537Z,6.6
2019-01-05T03:29:32.904Z,6.6
2019-01-05T03:30:34.266Z,6.6
2019-01-05T03:31:35.644Z,6.7
2019-01-05T03:32:36.994Z,6.6
2019-01-05T03:33:38.381Z,6.7
2019-01-05T03:34:39.720Z,6.7
2019-01-05T03:35:41.089Z,6.5
2019-01-05T03:36:42.452Z,6.7
2019-01-05T03:37:43.811Z,6.6
2019-01-05T03:38:45.185Z,6.6
2019-01-05T03:39:46.545Z,6.7
2019-01-05T03:40:47.914Z,6.7
2019-01-05T03:41:49.273Z,6.6
2019-01-05T03:42:50.642Z,6.6
2019-01-05T03:43:52.011Z,6.6
2019-01-05T03:44:53.369Z,6.8
2019-01-05T03:45:54.722Z,6.7
2019-01-05T03:46:56.104Z,6.7
2019-01-05T03:47:57.460Z,6.7
2019-01-05T03:48:58.824Z,6.8
2019-01-05T03:50:00.204Z,6.8
2019-01-05T03:51:01.562Z,6.8
2019-01-05T03:52:02.910Z,6.7
2019-01-05T03:53:04.278Z,6.7
2019-01-05T03:54:05.647Z,6.7
2019-01-05T03:55:07.019Z,6.7
2019-01-05T03:56:08.375Z,6.8
2019-01-05T03:57:09.735Z,6.8
2019-01-05T03:58:11.097Z,6.8
2019-01-05T03:59:12.466Z,6.8
2019-01-05T04:00:13.828Z,6.7
2019-01-05T04:01:15.186Z,6.8
2019-01-05T04:02:16.552Z,6.8
2019-01-05T04:03:17.914Z,6.8
2019-01-05T04:04:19.276Z,6.8
2019-01-05T04:05:20.643Z,6.8
2019-01-05T04:06:22.008Z,6.8
2019-01-05T04:07:23.377Z,6.8
2019-01-05T04:08:24.735Z,6.9
2019-01-05T04:09:26.097Z,6.8
2019-01-05T04:10:27.460Z,6.9
2019-01-05T04:11:28.823Z,6.9
2019-01-05T04:12:30.192Z,6.8
2019-01-05T04:13:31.554Z,6.8
2019-01-05T04:14:32.916Z,6.9
2019-01-05T04:15:34.279Z,6.9
2019-01-05T04:16:35.642Z,6.9
2019-01-05T04:17:37.005Z,6.9
2019-01-05T04:18:38.365Z,6.9
2019-01-05T04:19:39.734Z,6.9
2019-01-05T04:20:41.097Z,7.0
2019-01-05T04:21:42.458Z,6.9
2019-01-05T04:22:43.827Z,7.0
2019-01-05T04:23:45.189Z,7.0
2019-01-05T04:24:46.552Z,6.9
2019-01-05T04:25:47.923Z,6.9
2019-01-05T04:26:49.293Z,7.0
2019-01-05T04:27:50.656Z,7.0
2019-01-05T04:28:52.023Z,6.9
2019-01-05T04:29:53.389Z,7.0
2019-01-05T04:30:54.747Z,7.0
2019-01-05T04:31:56.113Z,7.0
2019-01-05T04:32:57.476Z,7.0
2019-01-05T04:33:58.840Z,7.0
2019-01-05T04:35:00.322Z,7.0
2019-01-05T04:36:01.535Z,7.0
2019-01-05T04:37:02.906Z,7.0
2019-01-05T04:38:04.260Z,6.9
2019-01-05T04:39:05.624Z,7.0
2019-01-05T04:40:06.989Z,7.0
2019-01-05T04:41:08.355Z,7.0
2019-01-05T04:42:09.729Z,6.9
2019-01-05T04:43:11.087Z,7.0
2019-01-05T04:44:12.447Z,7.0
2019-01-05T04:45:13.808Z,7.0
2019-01-05T04:46:15.169Z,7.0
2019-01-05T04:47:16.532Z,7.0
2019-01-05T04:48:17.901Z,7.0
2019-01-05T04:49:19.266Z,7.1
2019-01-05T04:50:20.628Z,7.0
2019-01-05T04:51:21.993Z,7.1
2019-01-05T04:52:23.354Z,7.1
2019-01-05T04:53:24.713Z,7.1
2019-01-05T04:54:26.077Z,7.1
2019-01-05T04:55:27.442Z,7.1
2019-01-05T04:56:28.806Z,7.1
2019-01-05T04:57:30.169Z,7.1
2019-01-05T04:58:31.533Z,7.2
2019-01-05T04:59:32.897Z,7.1
2019-01-05T05:00:34.267Z,7.2
2019-01-05T05:01:35.631Z,7.1
2019-01-05T05:02:36.997Z,7.1
2019-01-05T05:03:38.359Z,7.2
2019-01-05T05:04:39.724Z,7.1
2019-01-05T05:05:41.092Z,7.2
2019-01-05T05:06:42.500Z,7.2
2019-01-05T05:07:43.867Z,7.2
2019-01-05T05:08:45.229Z,7.2
2019-01-05T05:09:46.599Z,7.2
2019-01-05T05:10:47.963Z,7.3
2019-01-05T05:11:49.327Z,7.3
2019-01-05T05:12:50.706Z,7.3
2019-01-05T05:13:52.064Z,7.3
2019-01-05T05:14:53.426Z,7.2
2019-01-05T05:15:54.787Z,7.2
2019-01-05T05:16:56.147Z,7.3
2019-01-05T05:17:57.514Z,7.2
2019-01-05T05:18:58.873Z,7.2
2019-01-05T05:20:00.324Z,7.3
2019-01-05T05:21:01.570Z,7.3
2019-01-05T05:22:02.937Z,7.3
2019-01-05T05:23:04.299Z,7.2
2019-01-05T05:24:05.663Z,7.2
2019-01-05T05:25:07.025Z,7.2
2019-01-05T05:26:08.393Z,7.3
2019-01-05T05:27:09.760Z,7.3
2019-01-05T05:28:11.124Z,7.3
2019-01-05T05:29:12.488Z,7.2
2019-01-05T05:30:13.851Z,7.2
2019-01-05T05:31:15.212Z,7.3
2019-01-05T05:32:16.573Z,7.3
2019-01-05T05:33:17.948Z,7.2
2019-01-05T05:34:19.312Z,7.3
2019-01-05T05:35:20.676Z,7.3
2019-01-05T05:36:22.039Z,7.3
2019-01-05T05:37:23.409Z,7.3
2019-01-05T05:38:24.771Z,7.3
2019-01-05T05:39:26.133Z,7.3
2019-01-05T05:40:27.501Z,7.2
2019-01-05T05:41:28.870Z,7.3
2019-01-05T05:42:30.227Z,7.3
2019-01-05T05:43:31.595Z,7.3
2019-01-05T05:44:32.958Z,7.2
2019-01-05T05:45:34.321Z,7.2
2019-01-05T05:46:35.686Z,7.3
2019-01-05T05:47:37.054Z,7.3
2019-01-05T05:48:38.421Z,7.3
2019-01-05T05:49:39.781Z,7.2
2019-01-05T05:50:41.133Z,7.3
2019-01-05T05:51:42.506Z,7.4
2019-01-05T05:52:43.880Z,7.4
2019-01-05T05:53:45.261Z,7.3
2019-01-05T05:54:46.628Z,7.4
2019-01-05T05:55:48.344Z,7.3
2019-01-05T05:56:49.647Z,7.4
2019-01-05T05:57:51.081Z,7.3
2019-01-05T05:58:53.043Z,7.4
2019-01-05T05:59:54.967Z,7.5
2019-01-05T06:00:56.410Z,7.4
2019-01-05T06:01:57.815Z,7.5
2019-01-05T06:02:59.374Z,7.5
2019-01-05T06:04:00.739Z,7.6
2019-01-05T06:05:02.133Z,7.6
2019-01-05T06:06:03.551Z,7.5
2019-01-05T06:07:04.949Z,7.5
2019-01-05T06:08:06.355Z,7.6
2019-01-05T06:09:08.087Z,7.5
2019-01-05T06:10:09.525Z,7.6
2019-01-05T06:11:10.926Z,7.5
2019-01-05T06:12:12.935Z,7.5
2019-01-05T06:13:14.924Z,7.6
2019-01-05T06:14:16.905Z,7.6
2019-01-05T06:15:19.013Z,7.5
2019-01-05T06:16:20.962Z,7.5
2019-01-05T06:17:22.910Z,7.7
2019-01-05T06:18:24.918Z,7.6
2019-01-05T06:19:26.390Z,7.7
2019-01-05T06:20:27.841Z,7.7
2019-01-05T06:21:29.280Z,7.7
2019-01-05T06:22:30.718Z,7.7
2019-01-05T06:23:32.309Z,7.7
2019-01-05T06:24:33.807Z,7.7
2019-01-05T06:25:35.432Z,7.7
2019-01-05T06:26:36.885Z,7.8
2019-01-05T06:27:38.458Z,7.8
2019-01-05T06:28:39.887Z,7.8
2019-01-05T06:29:41.306Z,7.9
2019-01-05T06:30:42.710Z,7.8
2019-01-05T06:31:44.109Z,7.8
2019-01-05T06:32:45.590Z,7.8
2019-01-05T06:33:47.771Z,7.9
2019-01-05T06:34:49.865Z,7.9
2019-01-05T06:35:51.985Z,7.9
2019-01-05T06:36:54.277Z,7.9
2019-01-05T06:37:56.506Z,8.0
2019-01-05T06:38:58.642Z,7.9
2019-01-05T06:40:00.707Z,8.0
2019-01-05T06:41:02.832Z,8.1
2019-01-05T06:42:04.872Z,8.1
2019-01-05T06:43:07.027Z,8.0
2019-01-05T06:44:09.171Z,8.0
2019-01-05T06:45:11.310Z,8.0
2019-01-05T06:46:13.475Z,8.1
2019-01-05T06:47:15.762Z,8.0
2019-01-05T06:48:18.000Z,8.0
2019-01-05T06:49:20.250Z,8.0
2019-01-05T06:50:22.638Z,8.1
2019-01-05T06:51:24.768Z,8.0
2019-01-05T06:52:27.384Z,8.0
2019-01-05T06:53:29.131Z,8.0
2019-01-05T06:54:31.268Z,8.0
2019-01-05T06:55:33.545Z,8.0
2019-01-05T06:56:35.678Z,8.0
2019-01-05T06:57:37.902Z,8.0
2019-01-05T06:58:39.987Z,8.1
2019-01-05T06:59:41.939Z,8.1
2019-01-05T07:00:43.828Z,8.0
2019-01-05T07:01:45.962Z,8.1
2019-01-05T07:02:47.954Z,8.0
2019-01-05T07:03:49.594Z,8.0
2019-01-05T07:04:51.087Z,8.0
2019-01-05T07:05:52.522Z,8.0
2019-01-05T07:06:54.000Z,8.0
2019-01-05T07:07:55.504Z,8.0
2019-01-05T07:08:56.910Z,8.0
2019-01-05T07:09:59.016Z,8.0
2019-01-05T07:11:00.900Z,8.0
2019-01-05T07:12:02.852Z,8.1
2019-01-05T07:13:04.900Z,7.9
2019-01-05T07:14:06.970Z,8.1
2019-01-05T07:15:09.164Z,8.1
2019-01-05T07:16:11.217Z,7.9
2019-01-05T07:17:13.528Z,8.0
2019-01-05T07:18:15.597Z,7.9
2019-01-05T07:19:17.878Z,8.0
2019-01-05T07:20:19.911Z,8.0
2019-01-05T07:21:22.107Z,8.0
2019-01-05T07:22:24.274Z,8.0
2019-01-05T07:23:26.441Z,8.0
2019-01-05T07:24:28.502Z,8.1
2019-01-05T07:25:30.773Z,8.1
2019-01-05T07:26:33.021Z,8.1
2019-01-05T07:27:35.171Z,8.0
2019-01-05T07:28:37.426Z,8.1
2019-01-05T07:29:39.440Z,8.0
2019-01-05T07:30:41.581Z,8.0
2019-01-05T07:31:43.732Z,7.9
2019-01-05T07:32:45.926Z,8.0
2019-01-05T07:33:47.939Z,8.1
2019-01-05T07:34:49.964Z,8.1
2019-01-05T07:35:52.152Z,8.0
2019-01-05T07:36:54.152Z,8.0
2019-01-05T07:37:56.119Z,8.0
2019-01-05T07:38:58.207Z,8.1
2019-01-05T07:40:00.369Z,8.0
2019-01-05T07:41:02.556Z,8.1
2019-01-05T07:42:04.673Z,8.0
2019-01-05T07:43:06.830Z,8.0
2019-01-05T07:44:08.988Z,8.0
2019-01-05T07:45:11.912Z,8.1
2019-01-05T07:46:14.128Z,7.9
2019-01-05T07:47:16.216Z,8.1
2019-01-05T07:48:18.184Z,8.0
2019-01-05T07:49:20.196Z,7.9
2019-01-05T07:50:21.602Z,8.0
2019-01-05T07:51:23.399Z,8.0
2019-01-05T07:52:24.952Z,7.9
2019-01-05T07:53:26.897Z,8.0
2019-01-05T07:54:28.370Z,8.0
2019-01-05T07:55:29.792Z,8.1
2019-01-05T07:56:31.244Z,8.0
2019-01-05T07:57:32.695Z,8.0
2019-01-05T07:58:34.114Z,8.0
2019-01-05T07:59:35.567Z,8.0
2019-01-05T08:00:37.418Z,8.0
2019-01-05T08:01:38.938Z,8.1
2019-01-05T08:02:40.402Z,8.0
2019-01-05T08:03:41.934Z,8.0
2019-01-05T08:04:43.375Z,8.0
2019-01-05T08:05:44.840Z,8.1
2019-01-05T08:06:46.287Z,8.0
2019-01-05T08:07:47.740Z,8.1
2019-01-05T08:08:49.920Z,8.0
2019-01-05T08:09:52.130Z,8.0
2019-01-05T08:10:53.576Z,8.1
2019-01-05T08:11:55.081Z,8.2
2019-01-05T08:12:56.544Z,8.1
2019-01-05T08:13:57.987Z,8.1
2019-01-05T08:14:59.445Z,8.1
2019-01-05T08:16:00.927Z,8.1
2019-01-05T08:17:04.019Z,8.0
2019-01-05T08:18:06.199Z,8.0
2019-01-05T08:19:08.315Z,8.1
2019-01-05T08:20:10.618Z,8.0
2019-01-05T08:21:12.703Z,8.1
2019-01-05T08:22:14.925Z,8.0
2019-01-05T08:23:17.070Z,8.1
2019-01-05T08:24:19.196Z,8.1
2019-01-05T08:25:21.462Z,8.1
2019-01-05T08:26:23.692Z,8.1
2019-01-05T08:27:25.778Z,8.1
2019-01-05T08:28:28.099Z,8.2
2019-01-05T08:29:30.193Z,8.2
2019-01-05T08:30:32.318Z,8.1
2019-01-05T08:31:34.607Z,8.1
2019-01-05T08:32:36.786Z,8.0
2019-01-05T08:33:38.676Z,8.1
2019-01-05T08:34:40.429Z,8.1
2019-01-05T08:35:41.912Z,8.2
2019-01-05T08:36:43.376Z,8.1
2019-01-05T08:37:44.789Z,8.1
2019-01-05T08:38:46.257Z,8.1
2019-01-05T08:39:47.689Z,8.1
2019-01-05T08:40:49.152Z,8.2
2019-01-05T08:41:50.597Z,8.1
2019-01-05T08:42:52.117Z,8.1
2019-01-05T08:43:53.582Z,8.2
2019-01-05T08:44:55.033Z,8.2
2019-01-05T08:45:56.447Z,8.1
2019-01-05T08:46:58.057Z,8.2
2019-01-05T08:47:59.494Z,8.1
2019-01-05T08:49:01.004Z,8.2
2019-01-05T08:50:02.461Z,8.2
2019-01-05T08:51:03.983Z,8.2
2019-01-05T08:52:05.608Z,8.2
2019-01-05T08:53:07.122Z,8.2
2019-01-05T08:54:08.676Z,8.2
2019-01-05T08:55:10.283Z,8.1
2019-01-05T08:56:12.146Z,8.1
2019-01-05T08:57:13.807Z,8.1
2019-01-05T08:58:15.513Z,8.2
2019-01-05T08:59:17.345Z,8.2
2019-01-05T09:00:19.171Z,8.2
2019-01-05T09:01:20.990Z,8.2
2019-01-05T09:02:22.918Z,8.2
2019-01-05T09:03:24.506Z,8.2
2019-01-05T09:04:26.396Z,8.3
2019-01-05T09:05:28.259Z,8.3
2019-01-05T09:06:29.779Z,8.3
2019-01-05T09:07:31.341Z,8.3
2019-01-05T09:08:33.162Z,8.4
2019-01-05T09:09:35.156Z,8.3
2019-01-05T09:10:37.026Z,8.4
2019-01-05T09:11:38.836Z,8.4
2019-01-05T09:12:40.586Z,8.5
2019-01-05T09:13:42.522Z,8.4
2019-01-05T09:14:44.406Z,8.4
2019-01-05T09:15:46.083Z,8.4
2019-01-05T09:16:47.911Z,8.4
2019-01-05T09:17:49.797Z,8.4
2019-01-05T09:18:51.632Z,8.4
2019-01-05T09:19:53.270Z,8.4
2019-01-05T09:20:54.760Z,8.4
2019-01-05T09:21:56.324Z,8.4
2019-01-05T09:22:58.253Z,8.4
2019-01-05T09:23:59.823Z,8.4
2019-01-05T09:25:01.394Z,8.5
2019-01-05T09:26:02.820Z,8.5
2019-01-05T09:27:04.224Z,8.5
2019-01-05T09:28:05.619Z,8.5
2019-01-05T09:29:06.985Z,8.6
2019-01-05T09:30:08.474Z,8.7
2019-01-05T09:31:09.919Z,8.7
2019-01-05T09:32:11.302Z,8.7
2019-01-05T09:33:12.695Z,8.7
2019-01-05T09:34:14.112Z,8.6
2019-01-05T09:35:15.687Z,8.7
2019-01-05T09:36:17.062Z,8.8
2019-01-05T09:37:18.461Z,8.8
2019-01-05T09:38:19.829Z,8.8
2019-01-05T09:39:21.258Z,8.9
2019-01-05T09:40:22.675Z,8.7
2019-01-05T09:41:24.134Z,8.8
2019-01-05T09:42:25.636Z,8.8
2019-01-05T09:43:27.369Z,8.8
2019-01-05T09:44:29.025Z,8.7
2019-01-05T09:45:30.528Z,8.8
2019-01-05T09:46:32.350Z,8.7
2019-01-05T09:47:33.963Z,8.7
2019-01-05T09:48:35.436Z,8.7
2019-01-05T09:49:37.505Z,8.7
2019-01-05T09:50:39.307Z,8.6
2019-01-05T09:51:40.787Z,8.7
2019-01-05T09:52:42.276Z,8.6
2019-01-05T09:53:44.283Z,8.6
2019-01-05T09:54:46.492Z,8.7
2019-01-05T09:55:47.930Z,8.7
2019-01-05T09:56:49.398Z,8.6
2019-01-05T09:57:50.861Z,8.7
2019-01-05T09:58:52.563Z,8.7
2019-01-05T09:59:54.149Z,8.8
2019-01-05T10:00:55.852Z,8.7
2019-01-05T10:01:57.326Z,8.7
2019-01-05T10:02:59.109Z,8.8
2019-01-05T10:04:00.621Z,8.8
2019-01-05T10:05:02.524Z,8.8
2019-01-05T10:06:04.154Z,8.7
2019-01-05T10:07:05.690Z,8.7
2019-01-05T10:08:07.215Z,8.8
2019-01-05T10:09:10.111Z,8.8
2019-01-05T10:10:11.129Z,8.7
2019-01-05T10:11:13.012Z,8.7
2019-01-05T10:12:14.791Z,8.8
2019-01-05T10:13:16.610Z,8.8
2019-01-05T10:14:18.593Z,8.8
2019-01-05T10:15:20.561Z,8.8
2019-01-05T10:16:22.066Z,8.7
2019-01-05T10:17:25.369Z,8.8
2019-01-05T10:18:26.505Z,8.7
2019-01-05T10:19:27.962Z,8.8
2019-01-05T10:20:29.887Z,8.8
2019-01-05T10:21:31.596Z,8.8
2019-01-05T10:22:33.042Z,8.7
2019-01-05T10:23:34.908Z,8.7
2019-01-05T10:24:36.787Z,8.8
2019-01-05T10:25:38.756Z,8.7
2019-01-05T10:26:40.415Z,8.7
2019-01-05T10:27:42.023Z,8.7
2019-01-05T10:28:44.090Z,8.7
2019-01-05T10:29:46.175Z,8.7
2019-01-05T10:30:47.988Z,8.7
2019-01-05T10:31:49.598Z,8.7
2019-01-05T10:32:51.244Z,8.7
2019-01-05T10:33:52.904Z,8.7
2019-01-05T10:34:54.475Z,8.8
2019-01-05T10:35:56.092Z,8.8
2019-01-05T10:36:58.079Z,8.7
2019-01-05T10:37:59.893Z,8.7
2019-01-05T10:39:01.788Z,8.7
2019-01-05T10:40:03.630Z,8.7
2019-01-05T10:41:05.578Z,8.8
2019-01-05T10:42:07.763Z,8.8
2019-01-05T10:43:09.726Z,8.7
2019-01-05T10:44:11.567Z,8.7
2019-01-05T10:45:13.536Z,8.8
2019-01-05T10:46:15.713Z,8.7
2019-01-05T10:47:17.822Z,8.8
2019-01-05T10:48:19.353Z,8.7
2019-01-05T10:49:20.805Z,8.7
2019-01-05T10:50:22.387Z,8.8
2019-01-05T10:51:23.932Z,8.8
2019-01-05T10:52:25.570Z,8.8
2019-01-05T10:53:27.177Z,8.9
2019-01-05T10:54:28.684Z,8.9
2019-01-05T10:55:30.270Z,8.9
2019-01-05T10:56:31.771Z,9.0
2019-01-05T10:57:33.319Z,9.0
2019-01-05T10:58:34.785Z,9.0
2019-01-05T10:59:36.324Z,9.0
2019-01-05T11:00:37.931Z,8.9
2019-01-05T11:01:39.480Z,8.9
2019-01-05T11:02:41.082Z,8.9
2019-01-05T11:03:42.707Z,8.9
2019-01-05T11:04:44.260Z,8.8
2019-01-05T11:05:45.825Z,8.7
2019-01-05T11:06:47.376Z,8.8
2019-01-05T11:07:48.896Z,8.8
2019-01-05T11:08:50.369Z,8.8
2019-01-05T11:09:51.832Z,8.7
2019-01-05T11:10:53.369Z,8.8
2019-01-05T11:11:54.909Z,8.7
2019-01-05T11:12:56.437Z,8.8
2019-01-05T11:13:57.965Z,8.7
2019-01-05T11:14:59.601Z,8.8
2019-01-05T11:16:01.140Z,8.7
2019-01-05T11:17:02.792Z,8.8
2019-01-05T11:18:04.451Z,8.9
2019-01-05T11:19:05.949Z,9.0
2019-01-05T11:20:07.696Z,9.0
2019-01-05T11:21:09.346Z,9.0
2019-01-05T11:22:10.901Z,8.9
2019-01-05T11:23:12.418Z,8.8
2019-01-05T11:24:13.933Z,8.8
2019-01-05T11:25:15.496Z,8.8
2019-01-05T11:26:17.220Z,8.8
2019-01-05T11:27:18.896Z,8.8
2019-01-05T11:28:20.546Z,8.8
2019-01-05T11:29:22.127Z,8.8
2019-01-05T11:30:23.643Z,8.7
2019-01-05T11:31:25.266Z,8.8
2019-01-05T11:32:26.800Z,8.8
2019-01-05T11:33:28.295Z,8.9
2019-01-05T11:34:29.776Z,8.8
2019-01-05T11:35:31.274Z,8.9
2019-01-05T11:36:32.732Z,8.8
2019-01-05T11:37:34.200Z,8.9
2019-01-05T11:38:35.714Z,8.9
2019-01-05T11:39:37.183Z,8.9
2019-01-05T11:40:38.773Z,8.9
2019-01-05T11:41:40.237Z,8.8
2019-01-05T11:42:41.775Z,8.9
2019-01-05T11:43:43.307Z,8.9
2019-01-05T11:44:44.838Z,9.0
2019-01-05T11:45:46.332Z,9.0
2019-01-05T11:46:47.869Z,8.9
2019-01-05T11:47:49.388Z,8.9
2019-01-05T11:48:50.909Z,8.9
2019-01-05T11:49:52.371Z,8.9
2019-01-05T11:50:53.886Z,9.0
2019-01-05T11:51:55.432Z,8.9
2019-01-05T11:52:56.889Z,9.0
2019-01-05T11:53:58.398Z,8.9
2019-01-05T11:54:59.890Z,8.9
2019-01-05T11:56:01.326Z,8.8
2019-01-05T11:57:02.809Z,8.7
2019-01-05T11:58:04.270Z,8.7
2019-01-05T11:59:05.771Z,8.9
2019-01-05T12:00:07.243Z,8.8
2019-01-05T12:01:08.750Z,8.7
2019-01-05T12:02:10.278Z,8.9
2019-01-05T12:03:11.689Z,8.9
2019-01-05T12:04:13.132Z,8.8
2019-01-05T12:05:14.644Z,8.8
2019-01-05T12:06:16.054Z,8.8
2019-01-05T12:07:17.582Z,8.7
2019-01-05T12:08:19.053Z,8.8
2019-01-05T12:09:20.553Z,8.8
2019-01-05T12:10:22.063Z,8.9
2019-01-05T12:11:23.451Z,8.8
2019-01-05T12:12:24.874Z,8.9
2019-01-05T12:13:26.453Z,9.0
2019-01-05T12:14:27.838Z,9.0
2019-01-05T12:15:29.252Z,9.0
2019-01-05T12:16:30.681Z,9.0
2019-01-05T12:17:32.186Z,8.8
2019-01-05T12:18:33.575Z,8.9
2019-01-05T12:19:35.008Z,9.0
2019-01-05T12:20:36.453Z,9.0
2019-01-05T12:21:37.908Z,8.9
2019-01-05T12:22:39.289Z,8.9
2019-01-05T12:23:40.745Z,8.9
2019-01-05T12:24:42.152Z,8.8
2019-01-05T12:25:43.599Z,8.9
2019-01-05T12:26:44.970Z,8.9
2019-01-05T12:27:46.342Z,8.8
2019-01-05T12:28:47.711Z,8.8
2019-01-05T12:29:49.104Z,8.8
2019-01-05T12:30:50.508Z,8.9
2019-01-05T12:31:51.878Z,8.8
2019-01-05T12:32:53.301Z,8.9
2019-01-05T12:33:54.685Z,8.9
2019-01-05T12:34:56.043Z,8.8
2019-01-05T12:35:57.431Z,8.9
2019-01-05T12:36:58.816Z,8.9
2019-01-05T12:38:00.196Z,8.9
2019-01-05T12:39:01.587Z,9.0
2019-01-05T12:40:02.968Z,9.0
2019-01-05T12:41:04.345Z,8.9
2019-01-05T12:42:05.712Z,8.8
2019-01-05T12:43:07.150Z,8.9
2019-01-05T12:44:08.517Z,8.9
2019-01-05T12:45:09.886Z,8.9
2019-01-05T12:46:11.255Z,8.9
2019-01-05T12:47:12.641Z,8.9
2019-01-05T12:48:14.602Z,8.9
2019-01-05T12:49:15.968Z,8.9
2019-01-05T12:50:17.342Z,8.9
2019-01-05T12:51:18.718Z,9.0
2019-01-05T12:52:20.087Z,8.9
2019-01-05T12:53:21.454Z,9.0
2019-01-05T12:54:22.820Z,9.0
2019-01-05T12:55:24.195Z,8.9
2019-01-05T12:56:25.568Z,8.9
2019-01-05T12:57:26.948Z,9.0
2019-01-05T12:58:28.315Z,9.0
2019-01-05T12:59:29.690Z,9.0
2019-01-05T13:00:31.062Z,8.9
2019-01-05T13:01:32.436Z,8.9
2019-01-05T13:02:33.805Z,8.9
2019-01-05T13:03:35.182Z,9.0
2019-01-05T13:04:36.555Z,9.0
2019-01-05T13:05:37.923Z,9.0
2019-01-05T13:06:39.297Z,9.0
2019-01-05T13:07:40.666Z,8.9
2019-01-05T13:08:42.076Z,9.0
2019-01-05T13:09:43.406Z,8.9
2019-01-05T13:10:44.782Z,8.9
2019-01-05T13:11:46.149Z,8.9
2019-01-05T13:12:47.530Z,8.9
2019-01-05T13:13:48.918Z,8.9
2019-01-05T13:14:50.293Z,8.9
2019-01-05T13:15:51.660Z,8.9
2019-01-05T13:16:54.536Z,8.8
2019-01-05T13:17:54.359Z,8.9
2019-01-05T13:18:55.728Z,8.9
2019-01-05T13:19:57.098Z,8.8
2019-01-05T13:20:58.516Z,8.9
2019-01-05T13:21:59.875Z,9.0
2019-01-05T13:23:01.225Z,8.9
2019-01-05T13:24:02.597Z,9.0
2019-01-05T13:25:03.969Z,9.0
2019-01-05T13:26:05.364Z,9.0
2019-01-05T13:27:06.723Z,9.0
2019-01-05T13:28:08.101Z,8.9
2019-01-05T13:29:09.482Z,8.9
2019-01-05T13:30:10.898Z,8.7
2019-01-05T13:31:12.242Z,8.8
2019-01-05T13:32:13.652Z,8.8
2019-01-05T13:33:15.068Z,9.0
2019-01-05T13:34:16.440Z,8.9
2019-01-05T13:35:17.845Z,8.9
2019-01-05T13:36:19.235Z,8.9
2019-01-05T13:37:20.638Z,8.9
2019-01-05T13:38:22.043Z,8.9
2019-01-05T13:39:23.415Z,8.9
2019-01-05T13:40:24.816Z,8.9
2019-01-05T13:41:26.357Z,8.9
2019-01-05T13:42:27.736Z,8.8
2019-01-05T13:43:29.129Z,8.8
2019-01-05T13:44:30.544Z,8.8
2019-01-05T13:45:31.915Z,8.8
2019-01-05T13:46:33.286Z,8.8
2019-01-05T13:47:34.672Z,8.9
2019-01-05T13:48:36.052Z,8.8
2019-01-05T13:49:37.436Z,8.9
2019-01-05T13:50:38.835Z,8.8
2019-01-05T13:51:40.243Z,8.8
2019-01-05T13:52:41.642Z,8.7
2019-01-05T13:53:43.004Z,8.8
2019-01-05T13:54:44.386Z,8.9
2019-01-05T13:55:45.755Z,8.8
2019-01-05T13:56:47.140Z,8.9
2019-01-05T13:57:48.523Z,8.9
2019-01-05T13:58:49.950Z,8.9
2019-01-05T13:59:51.325Z,9.0
2019-01-05T14:00:52.694Z,8.9
2019-01-05T14:01:54.104Z,8.9
2019-01-05T14:02:55.517Z,8.8
2019-01-05T14:03:56.890Z,8.9
2019-01-05T14:04:58.269Z,8.9
2019-01-05T14:05:59.636Z,8.8
2019-01-05T14:07:01.058Z,9.0
2019-01-05T14:08:02.440Z,8.9